sensor_id;sensor_type;location;lat;lon;timestamp;P1;durP1;ratioP1;P2;durP2;ratioP2
71413;SDS011;59226;53.212;5.728;2022-12-01T00:01:08;11.30;;;5.37;;
71413;SDS011;59226;53.212;5.728;2022-12-01T00:03:33;9.60;;;3.83;;
71413;SDS011;59226;53.212;5.728;2022-12-01T00:08:24;12.88;;;6.05;;
71413;SDS011;59226;53.212;5.728;2022-12-01T00:10:49;9.33;;;3.90;;
71413;SDS011;59226;53.212;5.728;2022-12-01T00:13:14;13.07;;;5.00;;
71413;SDS011;59226;53.212;5.728;2022-12-01T00:15:40;10.53;;;4.67;;
71413;SDS011;59226;53.212;5.728;2022-12-01T00:18:05;13.50;;;5.27;;
71413;SDS011;59226;53.212;5.728;2022-12-01T00:20:33;18.03;;;6.83;;
71413;SDS011;59226;53.212;5.728;2022-12-01T00:22:59;8.38;;;5.25;;
71413;SDS011;59226;53.212;5.728;2022-12-01T00:25:24;14.00;;;4.50;;
71413;SDS011;59226;53.212;5.728;2022-12-01T00:27:49;8.63;;;5.00;;
71413;SDS011;59226;53.212;5.728;2022-12-01T00:30:15;16.58;;;6.28;;
71413;SDS011;59226;53.212;5.728;2022-12-01T00:32:41;8.10;;;5.30;;
71413;SDS011;59226;53.212;5.728;2022-12-01T00:35:06;10.73;;;4.63;;
71413;SDS011;59226;53.212;5.728;2022-12-01T00:37:32;12.97;;;5.63;;
71413;SDS011;59226;53.212;5.728;2022-12-01T00:39:58;12.32;;;5.55;;
71413;SDS011;59226;53.212;5.728;2022-12-01T00:42:23;9.73;;;5.70;;
71413;SDS011;59226;53.212;5.728;2022-12-01T00:44:48;12.93;;;3.97;;
71413;SDS011;59226;53.212;5.728;2022-12-01T00:47:14;15.63;;;6.27;;
71413;SDS011;59226;53.212;5.728;2022-12-01T00:49:39;7.50;;;3.90;;
71413;SDS011;59226;53.212;5.728;2022-12-01T00:52:04;8.70;;;4.23;;
71413;SDS011;59226;53.212;5.728;2022-12-01T00:54:29;16.17;;;5.07;;
71413;SDS011;59226;53.212;5.728;2022-12-01T00:56:56;11.30;;;5.57;;
71413;SDS011;59226;53.212;5.728;2022-12-01T00:59:21;12.95;;;5.15;;
71413;SDS011;59226;53.212;5.728;2022-12-01T01:01:46;6.43;;;3.63;;
71413;SDS011;59226;53.212;5.728;2022-12-01T01:04:13;9.63;;;4.60;;
71413;SDS011;59226;53.212;5.728;2022-12-01T01:06:38;15.73;;;4.40;;
71413;SDS011;59226;53.212;5.728;2022-12-01T01:09:03;9.73;;;5.23;;
71413;SDS011;59226;53.212;5.728;2022-12-01T01:11:29;7.50;;;5.17;;
71413;SDS011;59226;53.212;5.728;2022-12-01T01:13:54;11.37;;;4.60;;
71413;SDS011;59226;53.212;5.728;2022-12-01T01:16:19;13.07;;;5.23;;
71413;SDS011;59226;53.212;5.728;2022-12-01T01:18:45;6.68;;;3.33;;
71413;SDS011;59226;53.212;5.728;2022-12-01T01:21:12;12.52;;;3.72;;
71413;SDS011;59226;53.212;5.728;2022-12-01T01:23:38;7.65;;;3.97;;
71413;SDS011;59226;53.212;5.728;2022-12-01T01:26:04;15.60;;;5.13;;
71413;SDS011;59226;53.212;5.728;2022-12-01T01:28:30;15.15;;;6.25;;
71413;SDS011;59226;53.212;5.728;2022-12-01T01:30:55;14.83;;;4.67;;
71413;SDS011;59226;53.212;5.728;2022-12-01T01:33:21;11.60;;;4.10;;
71413;SDS011;59226;53.212;5.728;2022-12-01T01:35:46;9.33;;;5.30;;
71413;SDS011;59226;53.212;5.728;2022-12-01T01:38:11;7.60;;;4.40;;
71413;SDS011;59226;53.212;5.728;2022-12-01T01:40:43;12.77;;;5.20;;
71413;SDS011;59226;53.212;5.728;2022-12-01T01:43:15;7.63;;;3.65;;
71413;SDS011;59226;53.212;5.728;2022-12-01T01:45:40;9.55;;;3.25;;
71413;SDS011;59226;53.212;5.728;2022-12-01T01:48:06;12.97;;;4.53;;
71413;SDS011;59226;53.212;5.728;2022-12-01T01:50:31;8.77;;;5.03;;
71413;SDS011;59226;53.212;5.728;2022-12-01T01:52:58;11.77;;;3.88;;
71413;SDS011;59226;53.212;5.728;2022-12-01T01:55:25;8.03;;;3.63;;
71413;SDS011;59226;53.212;5.728;2022-12-01T01:57:51;7.07;;;3.58;;
71413;SDS011;59226;53.212;5.728;2022-12-01T02:00:18;8.00;;;4.57;;
71413;SDS011;59226;53.212;5.728;2022-12-01T02:02:44;8.77;;;3.65;;
71413;SDS011;59226;53.212;5.728;2022-12-01T02:05:16;20.45;;;4.78;;
71413;SDS011;59226;53.212;5.728;2022-12-01T02:07:43;5.55;;;3.55;;
71413;SDS011;59226;53.212;5.728;2022-12-01T02:10:09;7.10;;;3.20;;
71413;SDS011;59226;53.212;5.728;2022-12-01T02:17:46;13.85;;;3.83;;
71413;SDS011;59226;53.212;5.728;2022-12-01T02:25:18;17.83;;;4.17;;
71413;SDS011;59226;53.212;5.728;2022-12-01T02:30:44;10.05;;;4.70;;
71413;SDS011;59226;53.212;5.728;2022-12-01T02:33:18;7.30;;;3.38;;
71413;SDS011;59226;53.212;5.728;2022-12-01T02:40:45;8.10;;;4.83;;
71413;SDS011;59226;53.212;5.728;2022-12-01T02:43:26;8.80;;;3.10;;
71413;SDS011;59226;53.212;5.728;2022-12-01T02:45:55;8.95;;;3.97;;
71413;SDS011;59226;53.212;5.728;2022-12-01T02:48:28;6.55;;;3.15;;
71413;SDS011;59226;53.212;5.728;2022-12-01T02:50:55;8.80;;;3.85;;
71413;SDS011;59226;53.212;5.728;2022-12-01T02:53:22;9.52;;;4.45;;
71413;SDS011;59226;53.212;5.728;2022-12-01T02:55:51;8.37;;;5.47;;
71413;SDS011;59226;53.212;5.728;2022-12-01T02:58:17;7.15;;;4.25;;
71413;SDS011;59226;53.212;5.728;2022-12-01T03:00:46;13.10;;;6.47;;
71413;SDS011;59226;53.212;5.728;2022-12-01T03:03:31;7.57;;;3.88;;
71413;SDS011;59226;53.212;5.728;2022-12-01T03:06:01;10.97;;;5.10;;
71413;SDS011;59226;53.212;5.728;2022-12-01T03:08:42;26.20;;;7.20;;
71413;SDS011;59226;53.212;5.728;2022-12-01T03:11:10;12.88;;;5.40;;
71413;SDS011;59226;53.212;5.728;2022-12-01T03:14:37;17.98;;;6.30;;
71413;SDS011;59226;53.212;5.728;2022-12-01T03:16:54;10.45;;;5.32;;
71413;SDS011;59226;53.212;5.728;2022-12-01T03:21:57;6.15;;;3.95;;
71413;SDS011;59226;53.212;5.728;2022-12-01T03:24:25;8.45;;;3.75;;
71413;SDS011;59226;53.212;5.728;2022-12-01T03:26:53;10.43;;;4.43;;
71413;SDS011;59226;53.212;5.728;2022-12-01T03:29:23;4.95;;;3.00;;
71413;SDS011;59226;53.212;5.728;2022-12-01T03:31:50;8.93;;;3.50;;
71413;SDS011;59226;53.212;5.728;2022-12-01T03:34:26;13.45;;;5.72;;
71413;SDS011;59226;53.212;5.728;2022-12-01T03:36:55;8.38;;;4.05;;
71413;SDS011;59226;53.212;5.728;2022-12-01T03:39:23;11.10;;;6.25;;
71413;SDS011;59226;53.212;5.728;2022-12-01T03:41:51;12.15;;;4.65;;
71413;SDS011;59226;53.212;5.728;2022-12-01T03:44:19;8.57;;;4.50;;
71413;SDS011;59226;53.212;5.728;2022-12-01T03:47:07;11.80;;;7.07;;
71413;SDS011;59226;53.212;5.728;2022-12-01T03:49:34;13.70;;;2.90;;
71413;SDS011;59226;53.212;5.728;2022-12-01T03:52:08;10.40;;;5.13;;
71413;SDS011;59226;53.212;5.728;2022-12-01T03:54:40;4.97;;;3.28;;
71413;SDS011;59226;53.212;5.728;2022-12-01T03:57:09;17.15;;;3.83;;
71413;SDS011;59226;53.212;5.728;2022-12-01T03:59:37;13.90;;;3.58;;
71413;SDS011;59226;53.212;5.728;2022-12-01T04:02:06;10.80;;;4.88;;
71413;SDS011;59226;53.212;5.728;2022-12-01T04:04:32;6.67;;;4.43;;
71413;SDS011;59226;53.212;5.728;2022-12-01T04:06:57;12.43;;;5.20;;
71413;SDS011;59226;53.212;5.728;2022-12-01T04:09:22;10.97;;;3.80;;
71413;SDS011;59226;53.212;5.728;2022-12-01T04:11:47;11.00;;;5.23;;
71413;SDS011;59226;53.212;5.728;2022-12-01T04:14:31;13.93;;;6.20;;
71413;SDS011;59226;53.212;5.728;2022-12-01T04:16:56;10.27;;;4.90;;
71413;SDS011;59226;53.212;5.728;2022-12-01T04:19:21;18.37;;;4.60;;
71413;SDS011;59226;53.212;5.728;2022-12-01T04:21:47;9.57;;;4.77;;
71413;SDS011;59226;53.212;5.728;2022-12-01T04:24:12;9.57;;;6.20;;
71413;SDS011;59226;53.212;5.728;2022-12-01T04:26:37;11.80;;;6.53;;
71413;SDS011;59226;53.212;5.728;2022-12-01T04:29:04;9.17;;;5.67;;
71413;SDS011;59226;53.212;5.728;2022-12-01T04:31:30;8.77;;;5.05;;
71413;SDS011;59226;53.212;5.728;2022-12-01T04:33:55;10.27;;;4.90;;
71413;SDS011;59226;53.212;5.728;2022-12-01T04:36:21;8.85;;;5.90;;
71413;SDS011;59226;53.212;5.728;2022-12-01T04:38:47;11.00;;;4.83;;
71413;SDS011;59226;53.212;5.728;2022-12-01T04:41:12;9.63;;;4.27;;
71413;SDS011;59226;53.212;5.728;2022-12-01T04:43:38;7.65;;;3.97;;
71413;SDS011;59226;53.212;5.728;2022-12-01T04:46:03;16.90;;;5.40;;
71413;SDS011;59226;53.212;5.728;2022-12-01T04:48:29;18.90;;;4.22;;
71413;SDS011;59226;53.212;5.728;2022-12-01T04:50:54;11.60;;;5.27;;
71413;SDS011;59226;53.212;5.728;2022-12-01T04:53:20;6.87;;;3.17;;
71413;SDS011;59226;53.212;5.728;2022-12-01T04:55:45;11.47;;;5.67;;
71413;SDS011;59226;53.212;5.728;2022-12-01T04:58:10;16.97;;;3.43;;
71413;SDS011;59226;53.212;5.728;2022-12-01T05:00:35;6.50;;;3.17;;
71413;SDS011;59226;53.212;5.728;2022-12-01T05:03:01;10.23;;;5.27;;
71413;SDS011;59226;53.212;5.728;2022-12-01T05:05:26;14.37;;;4.40;;
71413;SDS011;59226;53.212;5.728;2022-12-01T05:07:51;6.53;;;4.10;;
71413;SDS011;59226;53.212;5.728;2022-12-01T05:10:16;10.90;;;5.00;;
71413;SDS011;59226;53.212;5.728;2022-12-01T05:12:43;14.27;;;5.97;;
71413;SDS011;59226;53.212;5.728;2022-12-01T05:15:10;9.70;;;4.10;;
71413;SDS011;59226;53.212;5.728;2022-12-01T05:17:35;6.70;;;3.30;;
71413;SDS011;59226;53.212;5.728;2022-12-01T05:20:00;9.03;;;3.60;;
71413;SDS011;59226;53.212;5.728;2022-12-01T05:22:44;9.20;;;4.70;;
71413;SDS011;59226;53.212;5.728;2022-12-01T05:25:09;11.13;;;4.87;;
71413;SDS011;59226;53.212;5.728;2022-12-01T05:27:34;9.53;;;4.50;;
71413;SDS011;59226;53.212;5.728;2022-12-01T05:30:00;14.47;;;4.50;;
71413;SDS011;59226;53.212;5.728;2022-12-01T05:32:25;10.43;;;4.53;;
71413;SDS011;59226;53.212;5.728;2022-12-01T05:34:50;15.03;;;4.97;;
71413;SDS011;59226;53.212;5.728;2022-12-01T05:37:15;9.47;;;3.77;;
71413;SDS011;59226;53.212;5.728;2022-12-01T05:39:40;16.77;;;4.00;;
71413;SDS011;59226;53.212;5.728;2022-12-01T05:42:06;14.63;;;5.93;;
71413;SDS011;59226;53.212;5.728;2022-12-01T05:44:31;14.93;;;5.53;;
71413;SDS011;59226;53.212;5.728;2022-12-01T05:46:56;21.60;;;6.53;;
71413;SDS011;59226;53.212;5.728;2022-12-01T05:49:21;14.23;;;5.20;;
71413;SDS011;59226;53.212;5.728;2022-12-01T05:51:46;15.53;;;7.27;;
71413;SDS011;59226;53.212;5.728;2022-12-01T05:54:12;17.20;;;6.30;;
71413;SDS011;59226;53.212;5.728;2022-12-01T05:56:37;12.50;;;4.07;;
71413;SDS011;59226;53.212;5.728;2022-12-01T05:59:02;15.67;;;6.73;;
71413;SDS011;59226;53.212;5.728;2022-12-01T06:01:27;12.67;;;4.90;;
71413;SDS011;59226;53.212;5.728;2022-12-01T06:03:53;9.70;;;4.37;;
71413;SDS011;59226;53.212;5.728;2022-12-01T06:06:18;12.27;;;4.30;;
71413;SDS011;59226;53.212;5.728;2022-12-01T06:08:43;11.53;;;4.67;;
71413;SDS011;59226;53.212;5.728;2022-12-01T06:11:08;12.07;;;4.87;;
71413;SDS011;59226;53.212;5.728;2022-12-01T06:13:33;12.60;;;4.20;;
71413;SDS011;59226;53.212;5.728;2022-12-01T06:15:59;17.17;;;6.00;;
71413;SDS011;59226;53.212;5.728;2022-12-01T06:18:26;13.88;;;6.35;;
71413;SDS011;59226;53.212;5.728;2022-12-01T06:20:53;11.88;;;6.03;;
71413;SDS011;59226;53.212;5.728;2022-12-01T06:23:18;7.00;;;4.00;;
71413;SDS011;59226;53.212;5.728;2022-12-01T06:25:44;11.57;;;7.00;;
71413;SDS011;59226;53.212;5.728;2022-12-01T06:28:09;16.17;;;8.30;;
71413;SDS011;59226;53.212;5.728;2022-12-01T06:30:34;8.23;;;4.33;;
71413;SDS011;59226;53.212;5.728;2022-12-01T06:32:59;14.30;;;4.23;;
71413;SDS011;59226;53.212;5.728;2022-12-01T06:35:25;14.63;;;4.50;;
71413;SDS011;59226;53.212;5.728;2022-12-01T06:37:51;11.60;;;4.60;;
71413;SDS011;59226;53.212;5.728;2022-12-01T06:40:16;17.95;;;6.65;;
71413;SDS011;59226;53.212;5.728;2022-12-01T06:42:42;7.20;;;4.83;;
71413;SDS011;59226;53.212;5.728;2022-12-01T06:45:07;10.73;;;5.33;;
71413;SDS011;59226;53.212;5.728;2022-12-01T06:47:34;10.20;;;6.67;;
71413;SDS011;59226;53.212;5.728;2022-12-01T06:50:00;12.05;;;6.25;;
71413;SDS011;59226;53.212;5.728;2022-12-01T06:52:25;8.97;;;5.40;;
71413;SDS011;59226;53.212;5.728;2022-12-01T06:54:50;9.27;;;5.13;;
71413;SDS011;59226;53.212;5.728;2022-12-01T06:57:15;11.27;;;5.03;;
71413;SDS011;59226;53.212;5.728;2022-12-01T06:59:40;8.77;;;4.30;;
71413;SDS011;59226;53.212;5.728;2022-12-01T07:02:07;7.20;;;4.70;;
71413;SDS011;59226;53.212;5.728;2022-12-01T07:04:33;11.93;;;4.83;;
71413;SDS011;59226;53.212;5.728;2022-12-01T07:06:58;11.40;;;4.30;;
71413;SDS011;59226;53.212;5.728;2022-12-01T07:09:23;6.70;;;3.30;;
71413;SDS011;59226;53.212;5.728;2022-12-01T07:11:49;5.77;;;2.47;;
71413;SDS011;59226;53.212;5.728;2022-12-01T07:14:15;9.30;;;4.07;;
71413;SDS011;59226;53.212;5.728;2022-12-01T07:16:41;13.45;;;4.63;;
71413;SDS011;59226;53.212;5.728;2022-12-01T07:19:06;7.63;;;4.43;;
71413;SDS011;59226;53.212;5.728;2022-12-01T07:21:32;7.43;;;4.57;;
71413;SDS011;59226;53.212;5.728;2022-12-01T07:23:57;8.20;;;4.77;;
71413;SDS011;59226;53.212;5.728;2022-12-01T07:26:22;9.37;;;3.87;;
71413;SDS011;59226;53.212;5.728;2022-12-01T07:28:47;6.30;;;4.47;;
71413;SDS011;59226;53.212;5.728;2022-12-01T07:31:14;9.43;;;5.07;;
71413;SDS011;59226;53.212;5.728;2022-12-01T07:33:40;12.10;;;3.75;;
71413;SDS011;59226;53.212;5.728;2022-12-01T07:36:05;8.30;;;3.30;;
71413;SDS011;59226;53.212;5.728;2022-12-01T07:38:31;10.95;;;3.78;;
71413;SDS011;59226;53.212;5.728;2022-12-01T07:41:06;11.07;;;4.68;;
71413;SDS011;59226;53.212;5.728;2022-12-01T07:43:32;6.17;;;3.00;;
71413;SDS011;59226;53.212;5.728;2022-12-01T07:46:08;9.45;;;3.03;;
71413;SDS011;59226;53.212;5.728;2022-12-01T07:48:35;10.18;;;4.70;;
71413;SDS011;59226;53.212;5.728;2022-12-01T07:51:01;8.73;;;4.07;;
71413;SDS011;59226;53.212;5.728;2022-12-01T07:53:27;11.73;;;5.10;;
71413;SDS011;59226;53.212;5.728;2022-12-01T07:55:52;10.10;;;4.83;;
71413;SDS011;59226;53.212;5.728;2022-12-01T07:58:18;7.10;;;3.80;;
71413;SDS011;59226;53.212;5.728;2022-12-01T08:00:43;11.30;;;6.07;;
71413;SDS011;59226;53.212;5.728;2022-12-01T08:03:08;7.00;;;4.13;;
71413;SDS011;59226;53.212;5.728;2022-12-01T08:05:33;8.80;;;3.77;;
71413;SDS011;59226;53.212;5.728;2022-12-01T08:07:59;16.25;;;5.70;;
71413;SDS011;59226;53.212;5.728;2022-12-01T08:10:24;4.80;;;3.93;;
71413;SDS011;59226;53.212;5.728;2022-12-01T08:12:50;8.03;;;4.33;;
71413;SDS011;59226;53.212;5.728;2022-12-01T08:15:15;9.47;;;3.53;;
71413;SDS011;59226;53.212;5.728;2022-12-01T08:17:40;8.53;;;4.40;;
71413;SDS011;59226;53.212;5.728;2022-12-01T08:20:06;7.27;;;3.30;;
71413;SDS011;59226;53.212;5.728;2022-12-01T08:22:31;7.70;;;4.03;;
71413;SDS011;59226;53.212;5.728;2022-12-01T08:24:57;7.10;;;3.87;;
71413;SDS011;59226;53.212;5.728;2022-12-01T08:27:22;12.83;;;4.00;;
71413;SDS011;59226;53.212;5.728;2022-12-01T08:29:47;11.97;;;5.53;;
71413;SDS011;59226;53.212;5.728;2022-12-01T08:32:12;8.43;;;3.60;;
71413;SDS011;59226;53.212;5.728;2022-12-01T08:34:37;7.00;;;3.73;;
71413;SDS011;59226;53.212;5.728;2022-12-01T08:37:03;6.67;;;2.93;;
71413;SDS011;59226;53.212;5.728;2022-12-01T08:39:28;5.13;;;2.73;;
71413;SDS011;59226;53.212;5.728;2022-12-01T08:41:53;5.63;;;3.57;;
71413;SDS011;59226;53.212;5.728;2022-12-01T08:44:19;18.60;;;4.33;;
71413;SDS011;59226;53.212;5.728;2022-12-01T08:46:44;11.50;;;3.50;;
71413;SDS011;59226;53.212;5.728;2022-12-01T08:49:09;3.70;;;1.97;;
71413;SDS011;59226;53.212;5.728;2022-12-01T08:51:34;10.27;;;4.70;;
71413;SDS011;59226;53.212;5.728;2022-12-01T08:54:00;6.70;;;4.28;;
71413;SDS011;59226;53.212;5.728;2022-12-01T08:56:29;10.40;;;4.23;;
71413;SDS011;59226;53.212;5.728;2022-12-01T08:58:55;23.13;;;5.03;;
71413;SDS011;59226;53.212;5.728;2022-12-01T09:01:21;6.00;;;2.38;;
71413;SDS011;59226;53.212;5.728;2022-12-01T09:03:46;7.80;;;4.03;;
71413;SDS011;59226;53.212;5.728;2022-12-01T09:08:37;6.67;;;2.27;;
71413;SDS011;59226;53.212;5.728;2022-12-01T09:11:03;9.70;;;4.73;;
71413;SDS011;59226;53.212;5.728;2022-12-01T09:13:29;4.95;;;3.08;;
71413;SDS011;59226;53.212;5.728;2022-12-01T09:15:59;10.20;;;4.00;;
71413;SDS011;59226;53.212;5.728;2022-12-01T09:18:24;14.25;;;2.58;;
71413;SDS011;59226;53.212;5.728;2022-12-01T09:20:49;5.93;;;3.00;;
71413;SDS011;59226;53.212;5.728;2022-12-01T09:23:15;3.67;;;1.53;;
71413;SDS011;59226;53.212;5.728;2022-12-01T09:25:40;1.50;;;1.20;;
71413;SDS011;59226;53.212;5.728;2022-12-01T09:28:05;3.47;;;1.37;;
71413;SDS011;59226;53.212;5.728;2022-12-01T09:30:30;5.23;;;2.70;;
71413;SDS011;59226;53.212;5.728;2022-12-01T09:32:55;10.70;;;5.20;;
71413;SDS011;59226;53.212;5.728;2022-12-01T09:35:21;5.93;;;2.20;;
71413;SDS011;59226;53.212;5.728;2022-12-01T09:37:46;4.63;;;2.73;;
71413;SDS011;59226;53.212;5.728;2022-12-01T09:40:13;6.30;;;2.20;;
71413;SDS011;59226;53.212;5.728;2022-12-01T09:42:38;3.13;;;1.95;;
71413;SDS011;59226;53.212;5.728;2022-12-01T09:45:04;4.27;;;2.60;;
71413;SDS011;59226;53.212;5.728;2022-12-01T09:47:33;4.50;;;1.80;;
71413;SDS011;59226;53.212;5.728;2022-12-01T09:52:24;6.67;;;1.67;;
71413;SDS011;59226;53.212;5.728;2022-12-01T09:54:51;3.08;;;1.17;;
71413;SDS011;59226;53.212;5.728;2022-12-01T09:57:23;4.97;;;1.42;;
71413;SDS011;59226;53.212;5.728;2022-12-01T09:59:50;2.42;;;1.30;;
71413;SDS011;59226;53.212;5.728;2022-12-01T10:02:28;3.53;;;2.03;;
71413;SDS011;59226;53.212;5.728;2022-12-01T10:04:55;4.68;;;2.70;;
71413;SDS011;59226;53.212;5.728;2022-12-01T10:07:31;3.92;;;2.22;;
71413;SDS011;59226;53.212;5.728;2022-12-01T10:09:58;4.13;;;1.63;;
71413;SDS011;59226;53.212;5.728;2022-12-01T10:12:28;2.22;;;0.77;;
71413;SDS011;59226;53.212;5.728;2022-12-01T10:15:13;6.53;;;2.23;;
71413;SDS011;59226;53.212;5.728;2022-12-01T10:17:43;3.40;;;1.23;;
71413;SDS011;59226;53.212;5.728;2022-12-01T10:25:25;2.60;;;1.02;;
71413;SDS011;59226;53.212;5.728;2022-12-01T10:30:33;2.28;;;1.10;;
71413;SDS011;59226;53.212;5.728;2022-12-01T10:35:34;4.70;;;1.52;;
71413;SDS011;59226;53.212;5.728;2022-12-01T10:38:00;5.72;;;1.80;;
71413;SDS011;59226;53.212;5.728;2022-12-01T10:40:26;3.70;;;1.87;;
71413;SDS011;59226;53.212;5.728;2022-12-01T10:42:52;2.60;;;1.70;;
71413;SDS011;59226;53.212;5.728;2022-12-01T10:50:30;6.60;;;1.50;;
71413;SDS011;59226;53.212;5.728;2022-12-01T10:52:55;2.10;;;1.13;;
71413;SDS011;59226;53.212;5.728;2022-12-01T10:55:30;5.40;;;3.33;;
71413;SDS011;59226;53.212;5.728;2022-12-01T10:57:57;2.78;;;1.25;;
71413;SDS011;59226;53.212;5.728;2022-12-01T11:00:24;2.22;;;0.88;;
71413;SDS011;59226;53.212;5.728;2022-12-01T11:02:50;4.13;;;1.90;;
71413;SDS011;59226;53.212;5.728;2022-12-01T11:05:24;2.43;;;1.13;;
71413;SDS011;59226;53.212;5.728;2022-12-01T11:07:49;2.40;;;1.23;;
71413;SDS011;59226;53.212;5.728;2022-12-01T11:12:41;3.23;;;1.67;;
71413;SDS011;59226;53.212;5.728;2022-12-01T11:15:06;4.18;;;1.90;;
71413;SDS011;59226;53.212;5.728;2022-12-01T11:17:39;11.70;;;2.17;;
71413;SDS011;59226;53.212;5.728;2022-12-01T11:25:34;3.88;;;1.75;;
71413;SDS011;59226;53.212;5.728;2022-12-01T11:27:59;3.97;;;1.70;;
71413;SDS011;59226;53.212;5.728;2022-12-01T11:30:26;5.30;;;2.03;;
71413;SDS011;59226;53.212;5.728;2022-12-01T11:32:59;4.15;;;1.77;;
71413;SDS011;59226;53.212;5.728;2022-12-01T11:35:29;3.28;;;1.65;;
71413;SDS011;59226;53.212;5.728;2022-12-01T11:37:56;3.10;;;1.73;;
71413;SDS011;59226;53.212;5.728;2022-12-01T11:40:27;3.97;;;1.67;;
71413;SDS011;59226;53.212;5.728;2022-12-01T11:42:53;4.95;;;2.65;;
71413;SDS011;59226;53.212;5.728;2022-12-01T11:48:01;5.27;;;0.93;;
71413;SDS011;59226;53.212;5.728;2022-12-01T11:50:28;5.78;;;2.75;;
71413;SDS011;59226;53.212;5.728;2022-12-01T11:52:54;2.87;;;1.57;;
71413;SDS011;59226;53.212;5.728;2022-12-01T11:57:45;3.92;;;1.42;;
71413;SDS011;59226;53.212;5.728;2022-12-01T12:00:54;2.80;;;1.00;;
71413;SDS011;59226;53.212;5.728;2022-12-01T12:11:10;1.88;;;0.77;;
71413;SDS011;59226;53.212;5.728;2022-12-01T12:26:10;2.40;;;0.95;;
71413;SDS011;59226;53.212;5.728;2022-12-01T12:31:10;0.65;;;0.50;;
71413;SDS011;59226;53.212;5.728;2022-12-01T12:36:13;2.55;;;1.08;;
71413;SDS011;59226;53.212;5.728;2022-12-01T12:38:57;3.63;;;1.73;;
71413;SDS011;59226;53.212;5.728;2022-12-01T12:46:57;4.82;;;1.85;;
71413;SDS011;59226;53.212;5.728;2022-12-01T12:54:40;1.73;;;0.95;;
71413;SDS011;59226;53.212;5.728;2022-12-01T12:57:42;3.43;;;1.43;;
71413;SDS011;59226;53.212;5.728;2022-12-01T13:00:01;5.78;;;1.52;;
71413;SDS011;59226;53.212;5.728;2022-12-01T13:02:33;3.65;;;2.00;;
71413;SDS011;59226;53.212;5.728;2022-12-01T13:05:11;3.15;;;1.83;;
71413;SDS011;59226;53.212;5.728;2022-12-01T13:07:41;2.72;;;1.20;;
71413;SDS011;59226;53.212;5.728;2022-12-01T13:10:09;0.77;;;0.47;;
71413;SDS011;59226;53.212;5.728;2022-12-01T13:12:37;5.53;;;1.85;;
71413;SDS011;59226;53.212;5.728;2022-12-01T13:17:39;4.75;;;1.33;;
71413;SDS011;59226;53.212;5.728;2022-12-01T13:20:05;2.45;;;1.25;;
71413;SDS011;59226;53.212;5.728;2022-12-01T13:22:34;2.07;;;1.27;;
71413;SDS011;59226;53.212;5.728;2022-12-01T13:25:00;4.20;;;1.40;;
71413;SDS011;59226;53.212;5.728;2022-12-01T13:27:27;4.70;;;2.67;;
71413;SDS011;59226;53.212;5.728;2022-12-01T13:29:55;2.50;;;1.23;;
71413;SDS011;59226;53.212;5.728;2022-12-01T13:32:25;6.88;;;1.92;;
71413;SDS011;59226;53.212;5.728;2022-12-01T13:34:51;2.10;;;1.27;;
71413;SDS011;59226;53.212;5.728;2022-12-01T13:37:24;2.40;;;0.90;;
71413;SDS011;59226;53.212;5.728;2022-12-01T13:39:49;3.50;;;1.47;;
71413;SDS011;59226;53.212;5.728;2022-12-01T13:42:19;2.72;;;1.02;;
71413;SDS011;59226;53.212;5.728;2022-12-01T13:44:50;2.95;;;1.20;;
71413;SDS011;59226;53.212;5.728;2022-12-01T13:52:28;2.77;;;1.27;;
71413;SDS011;59226;53.212;5.728;2022-12-01T14:02:34;3.83;;;1.63;;
71413;SDS011;59226;53.212;5.728;2022-12-01T14:07:43;3.22;;;1.92;;
71413;SDS011;59226;53.212;5.728;2022-12-01T14:10:14;3.40;;;1.90;;
71413;SDS011;59226;53.212;5.728;2022-12-01T14:12:42;3.90;;;2.10;;
71413;SDS011;59226;53.212;5.728;2022-12-01T14:18:06;4.20;;;1.38;;
71413;SDS011;59226;53.212;5.728;2022-12-01T14:20:42;3.22;;;1.52;;
71413;SDS011;59226;53.212;5.728;2022-12-01T14:23:23;3.25;;;1.08;;
71413;SDS011;59226;53.212;5.728;2022-12-01T14:31:16;5.80;;;2.45;;
71413;SDS011;59226;53.212;5.728;2022-12-01T14:33:42;5.50;;;2.70;;
71413;SDS011;59226;53.212;5.728;2022-12-01T14:36:18;4.47;;;1.33;;
71413;SDS011;59226;53.212;5.728;2022-12-01T14:38:44;5.43;;;1.75;;
71413;SDS011;59226;53.212;5.728;2022-12-01T14:41:10;7.03;;;2.23;;
71413;SDS011;59226;53.212;5.728;2022-12-01T14:43:38;5.07;;;2.65;;
71413;SDS011;59226;53.212;5.728;2022-12-01T14:46:25;3.63;;;1.50;;
71413;SDS011;59226;53.212;5.728;2022-12-01T14:48:50;6.78;;;1.35;;
71413;SDS011;59226;53.212;5.728;2022-12-01T14:51:28;4.60;;;1.67;;
71413;SDS011;59226;53.212;5.728;2022-12-01T14:53:56;3.60;;;1.38;;
71413;SDS011;59226;53.212;5.728;2022-12-01T14:56:22;3.80;;;1.42;;
71413;SDS011;59226;53.212;5.728;2022-12-01T14:58:55;3.50;;;1.20;;
71413;SDS011;59226;53.212;5.728;2022-12-01T15:01:21;3.77;;;1.60;;
71413;SDS011;59226;53.212;5.728;2022-12-01T15:03:51;2.03;;;1.05;;
71413;SDS011;59226;53.212;5.728;2022-12-01T15:06:18;4.50;;;1.50;;
71413;SDS011;59226;53.212;5.728;2022-12-01T15:08:44;3.88;;;1.67;;
71413;SDS011;59226;53.212;5.728;2022-12-01T15:11:22;3.40;;;1.87;;
71413;SDS011;59226;53.212;5.728;2022-12-01T15:13:50;4.50;;;2.25;;
71413;SDS011;59226;53.212;5.728;2022-12-01T15:16:19;3.47;;;1.65;;
71413;SDS011;59226;53.212;5.728;2022-12-01T15:18:45;4.63;;;1.20;;
71413;SDS011;59226;53.212;5.728;2022-12-01T15:23:58;4.72;;;1.17;;
71413;SDS011;59226;53.212;5.728;2022-12-01T15:26:25;2.65;;;1.65;;
71413;SDS011;59226;53.212;5.728;2022-12-01T15:29:02;4.07;;;1.88;;
71413;SDS011;59226;53.212;5.728;2022-12-01T15:31:28;3.97;;;1.77;;
71413;SDS011;59226;53.212;5.728;2022-12-01T15:33:53;2.87;;;1.93;;
71413;SDS011;59226;53.212;5.728;2022-12-01T15:36:18;5.77;;;2.27;;
71413;SDS011;59226;53.212;5.728;2022-12-01T15:38:44;4.00;;;2.07;;
71413;SDS011;59226;53.212;5.728;2022-12-01T15:41:14;5.40;;;1.90;;
71413;SDS011;59226;53.212;5.728;2022-12-01T15:43:40;2.60;;;1.30;;
71413;SDS011;59226;53.212;5.728;2022-12-01T15:46:13;3.23;;;0.87;;
71413;SDS011;59226;53.212;5.728;2022-12-01T15:48:38;5.83;;;2.40;;
71413;SDS011;59226;53.212;5.728;2022-12-01T15:53:29;4.50;;;2.23;;
71413;SDS011;59226;53.212;5.728;2022-12-01T15:55:57;5.25;;;2.92;;
71413;SDS011;59226;53.212;5.728;2022-12-01T15:58:28;5.65;;;2.88;;
71413;SDS011;59226;53.212;5.728;2022-12-01T16:03:19;7.43;;;3.57;;
71413;SDS011;59226;53.212;5.728;2022-12-01T16:05:44;5.47;;;3.10;;
71413;SDS011;59226;53.212;5.728;2022-12-01T16:08:17;6.73;;;2.73;;
71413;SDS011;59226;53.212;5.728;2022-12-01T16:10:43;6.27;;;2.90;;
71413;SDS011;59226;53.212;5.728;2022-12-01T16:15:53;5.43;;;2.50;;
71413;SDS011;59226;53.212;5.728;2022-12-01T16:18:27;6.37;;;2.70;;
71413;SDS011;59226;53.212;5.728;2022-12-01T16:20:53;4.03;;;2.00;;
71413;SDS011;59226;53.212;5.728;2022-12-01T16:23:25;8.18;;;2.78;;
71413;SDS011;59226;53.212;5.728;2022-12-01T16:25:50;11.10;;;4.33;;
71413;SDS011;59226;53.212;5.728;2022-12-01T16:28:20;12.43;;;4.20;;
71413;SDS011;59226;53.212;5.728;2022-12-01T16:30:46;6.45;;;3.72;;
71413;SDS011;59226;53.212;5.728;2022-12-01T16:33:18;10.90;;;3.10;;
71413;SDS011;59226;53.212;5.728;2022-12-01T16:35:45;9.88;;;3.30;;
71413;SDS011;59226;53.212;5.728;2022-12-01T16:38:13;9.03;;;4.03;;
71413;SDS011;59226;53.212;5.728;2022-12-01T16:40:42;13.38;;;5.35;;
71413;SDS011;59226;53.212;5.728;2022-12-01T16:43:14;8.63;;;4.32;;
71413;SDS011;59226;53.212;5.728;2022-12-01T16:45:40;9.55;;;3.05;;
71413;SDS011;59226;53.212;5.728;2022-12-01T16:48:05;10.80;;;6.27;;
71413;SDS011;59226;53.212;5.728;2022-12-01T16:50:31;13.23;;;4.73;;
71413;SDS011;59226;53.212;5.728;2022-12-01T16:52:57;10.40;;;5.70;;
71413;SDS011;59226;53.212;5.728;2022-12-01T16:55:24;14.23;;;5.10;;